createdAt,value
2017-06-13T06:24:02.587Z,260
2017-06-13T06:24:43.156Z,255
2017-06-13T06:25:23.727Z,260
2017-06-13T06:26:04.357Z,255
2017-06-13T06:26:44.908Z,255
2017-06-13T06:27:25.588Z,250
2017-06-13T06:28:06.182Z,250
2017-06-13T06:28:46.761Z,250
2017-06-13T06:29:27.448Z,255
2017-06-13T06:30:08.073Z,260
2017-06-13T06:30:48.704Z,255
2017-06-13T06:31:29.269Z,250
2017-06-13T06:32:09.934Z,245
2017-06-13T06:32:50.575Z,245
2017-06-13T06:33:31.232Z,255
2017-06-13T06:34:11.876Z,260
2017-06-13T06:34:52.533Z,265
2017-06-13T06:35:33.185Z,265
2017-06-13T06:36:13.834Z,260
2017-06-13T06:36:54.543Z,260
2017-06-13T06:37:36.174Z,265
2017-06-13T06:38:16.921Z,270
2017-06-13T06:38:58.165Z,265
2017-06-13T06:39:38.839Z,260
2017-06-13T06:40:19.501Z,245
2017-06-13T06:41:00.150Z,260
2017-06-13T06:41:40.803Z,265
2017-06-13T06:42:21.460Z,265
2017-06-13T06:43:02.974Z,260
2017-06-13T06:43:44.206Z,260
2017-06-13T06:44:24.837Z,270
2017-06-13T06:45:05.528Z,285
2017-06-13T06:45:46.159Z,295
2017-06-13T06:46:26.815Z,300
2017-06-13T06:47:07.470Z,300
2017-06-13T06:47:48.129Z,315
2017-06-13T06:48:28.793Z,355
2017-06-13T06:49:09.443Z,335
2017-06-13T06:49:49.988Z,300
2017-06-13T06:50:30.645Z,260
2017-06-13T06:51:11.299Z,235
2017-06-13T06:51:51.862Z,230
2017-06-13T06:52:33.506Z,240
2017-06-13T06:53:14.179Z,255
2017-06-13T06:53:54.766Z,280
2017-06-13T06:54:35.370Z,305
2017-06-13T06:55:16.022Z,300
2017-06-13T06:55:56.668Z,280
2017-06-13T06:56:37.338Z,265
2017-06-13T06:57:17.975Z,255
2017-06-13T06:57:58.623Z,250
2017-06-13T06:58:39.297Z,240
2017-06-13T06:59:19.930Z,230
2017-06-13T07:00:00.586Z,245
2017-06-13T07:00:41.256Z,265
2017-06-13T07:01:21.891Z,295
2017-06-13T07:02:02.535Z,300
2017-06-13T07:02:43.193Z,285
2017-06-13T07:03:23.752Z,255
2017-06-13T07:04:04.402Z,230
2017-06-13T07:04:45.051Z,220
2017-06-13T07:05:25.758Z,225
2017-06-13T07:06:06.410Z,240
2017-06-13T07:06:47.070Z,280
2017-06-13T07:07:27.637Z,295
2017-06-13T07:08:08.263Z,290
2017-06-13T07:08:48.839Z,275
2017-06-13T07:09:29.536Z,240
2017-06-13T07:10:10.191Z,225
2017-06-13T07:10:50.829Z,230
2017-06-13T07:11:31.494Z,240
2017-06-13T07:12:12.248Z,280
2017-06-13T07:12:52.918Z,300
2017-06-13T07:13:33.552Z,310
2017-06-13T07:14:14.210Z,310
2017-06-13T07:14:54.866Z,300
2017-06-13T07:15:35.419Z,285
2017-06-13T07:16:16.107Z,280
2017-06-13T07:16:56.730Z,280
2017-06-13T07:17:37.458Z,290
2017-06-13T07:18:23.829Z,300
2017-06-13T07:19:05.494Z,305
2017-06-13T07:19:46.195Z,295
2017-06-13T07:20:26.859Z,280
2017-06-13T07:21:08.534Z,280
2017-06-13T07:21:49.692Z,275
2017-06-13T07:22:30.378Z,290
2017-06-13T07:23:12.017Z,300
2017-06-13T07:23:52.609Z,305
2017-06-13T07:24:33.261Z,330
2017-06-13T07:25:13.929Z,330
2017-06-13T07:25:54.540Z,335
2017-06-13T07:26:35.188Z,340
2017-06-13T07:27:15.748Z,340
2017-06-13T07:27:56.399Z,320
2017-06-13T07:28:37.061Z,280
2017-06-13T07:29:18.706Z,275
2017-06-13T07:29:59.304Z,270
2017-06-13T07:30:39.931Z,295
2017-06-13T07:31:20.488Z,320
2017-06-13T07:32:01.128Z,290
2017-06-13T07:32:41.714Z,270
2017-06-13T07:33:22.365Z,225
2017-06-13T07:34:02.915Z,215
2017-06-13T07:34:43.521Z,210
2017-06-13T07:35:24.073Z,220
2017-06-13T07:36:04.733Z,240
2017-06-13T07:36:45.394Z,265
2017-06-13T07:37:26.413Z,290
2017-06-13T07:38:07.662Z,300
2017-06-13T07:38:48.275Z,310
2017-06-13T07:39:28.920Z,320
2017-06-13T07:40:09.561Z,335
2017-06-13T07:40:50.220Z,345
2017-06-13T07:41:30.865Z,340
2017-06-13T07:42:11.538Z,320
2017-06-13T07:42:52.223Z,285
2017-06-13T07:43:32.944Z,245
2017-06-13T07:44:13.608Z,230
2017-06-13T07:44:54.255Z,220
2017-06-13T07:45:34.894Z,215
2017-06-13T07:46:15.566Z,235
2017-06-13T07:46:56.305Z,250
2017-06-13T07:47:36.966Z,260
2017-06-13T07:48:17.619Z,270
2017-06-13T07:48:58.256Z,280
2017-06-13T07:49:39.157Z,295
2017-06-13T07:50:19.761Z,315
2017-06-13T07:51:00.463Z,325
2017-06-13T07:51:41.146Z,325
2017-06-13T07:52:22.763Z,330
2017-06-13T07:53:03.329Z,330
2017-06-13T07:53:43.916Z,340
2017-06-13T07:54:24.579Z,335
2017-06-13T07:55:05.150Z,320
2017-06-13T07:55:45.771Z,300
2017-06-13T07:56:26.436Z,270
2017-06-13T07:57:07.118Z,245
2017-06-13T07:57:47.736Z,215
2017-06-13T07:58:28.387Z,200
2017-06-13T07:59:08.974Z,195
2017-06-13T07:59:50.357Z,200
2017-06-13T08:00:32.001Z,220
2017-06-13T08:01:12.653Z,240
2017-06-13T08:01:53.292Z,255
2017-06-13T08:02:33.951Z,255
2017-06-13T08:03:14.612Z,260
2017-06-13T08:03:55.387Z,270
2017-06-13T08:04:37.180Z,295
2017-06-13T08:05:17.783Z,315
2017-06-13T08:05:58.462Z,340
2017-06-13T08:06:39.145Z,350
2017-06-13T08:07:19.767Z,355
2017-06-13T08:08:00.413Z,345
2017-06-13T08:08:40.979Z,325
2017-06-13T08:09:21.612Z,300
2017-06-13T08:10:02.290Z,280
2017-06-13T08:10:42.906Z,260
2017-06-13T08:11:23.568Z,255
2017-06-13T08:12:04.294Z,250
2017-06-13T08:12:44.874Z,255
2017-06-13T08:13:25.468Z,260
2017-06-13T08:14:06.091Z,265
2017-06-13T08:14:46.676Z,275
2017-06-13T08:15:27.324Z,290
2017-06-13T08:16:07.926Z,300
2017-06-13T08:16:48.487Z,345
2017-06-13T08:17:29.127Z,360
2017-06-13T08:18:09.806Z,370
2017-06-13T08:18:50.391Z,380
2017-06-13T08:19:31.019Z,385
2017-06-13T08:20:11.590Z,380
2017-06-13T08:20:52.165Z,380
2017-06-13T08:21:32.763Z,375
2017-06-13T08:22:13.355Z,370
2017-06-13T08:22:53.951Z,380
2017-06-13T08:23:34.620Z,380
2017-06-13T08:24:15.190Z,350
2017-06-13T08:24:55.773Z,340
2017-06-13T08:25:36.339Z,325
2017-06-13T08:26:16.925Z,310
2017-06-13T08:26:57.764Z,300
2017-06-13T08:27:39.396Z,290
2017-06-13T08:28:19.964Z,280
2017-06-13T08:29:00.540Z,265
2017-06-13T08:29:41.116Z,255
2017-06-13T08:30:21.758Z,245
2017-06-13T08:31:02.331Z,235
2017-06-13T08:31:42.999Z,225
2017-06-13T08:32:23.604Z,220
2017-06-13T08:33:05.314Z,215
2017-06-13T08:33:45.951Z,215
2017-06-13T08:34:26.628Z,205
2017-06-13T08:35:07.384Z,200
2017-06-13T08:35:47.960Z,200
2017-06-13T08:36:28.539Z,200
2017-06-13T08:37:09.207Z,200
2017-06-13T08:37:49.865Z,200
2017-06-13T08:38:30.531Z,205
2017-06-13T08:39:11.160Z,215
2017-06-13T08:39:51.958Z,230
2017-06-13T08:40:32.531Z,250
2017-06-13T08:41:13.134Z,265
2017-06-13T08:41:53.773Z,275
2017-06-13T08:42:34.368Z,290
2017-06-13T08:43:14.928Z,305
2017-06-13T08:44:02.493Z,320
2017-06-13T08:44:43.066Z,330
2017-06-13T08:45:23.736Z,340
2017-06-13T08:46:04.301Z,350
2017-06-13T08:46:44.939Z,355
2017-06-13T08:47:25.568Z,365
2017-06-13T08:48:06.140Z,370
2017-06-13T08:48:46.750Z,385
2017-06-13T08:49:27.325Z,385
2017-06-13T08:50:07.956Z,385
2017-06-13T08:50:48.564Z,385
2017-06-13T08:51:29.160Z,365
2017-06-13T08:52:09.717Z,360
2017-06-13T08:52:50.368Z,350
2017-06-13T08:53:31.020Z,330
2017-06-13T08:54:12.621Z,335
2017-06-13T08:54:54.311Z,270
2017-06-13T08:55:35.024Z,240
2017-06-13T08:56:15.684Z,220
2017-06-13T08:56:56.272Z,205
2017-06-13T08:57:36.880Z,200
2017-06-13T08:58:17.576Z,195
2017-06-13T08:58:58.135Z,190
2017-06-13T08:59:38.818Z,190
2017-06-13T09:00:19.501Z,190
2017-06-13T09:01:00.181Z,195
2017-06-13T09:01:40.814Z,200
2017-06-13T09:02:21.492Z,210
2017-06-13T09:03:03.137Z,230
2017-06-13T09:03:43.728Z,250
2017-06-13T09:04:24.346Z,270
2017-06-13T09:05:05.038Z,290
2017-06-13T09:05:45.609Z,305
2017-06-13T09:06:26.286Z,320
2017-06-13T09:07:06.859Z,335
2017-06-13T09:07:47.507Z,345
2017-06-13T09:08:28.122Z,355
2017-06-13T09:09:12.435Z,350
2017-06-13T09:09:53.013Z,335
2017-06-13T09:10:34.688Z,315
2017-06-13T09:11:15.265Z,295
2017-06-13T09:11:55.916Z,275
2017-06-13T09:12:36.566Z,250
2017-06-13T09:13:17.222Z,225
2017-06-13T09:13:57.910Z,200
2017-06-13T09:14:38.522Z,185
2017-06-13T09:15:20.196Z,165
2017-06-13T09:16:00.864Z,150
2017-06-13T09:16:46.018Z,135
2017-06-13T09:17:31.609Z,120
2017-06-13T09:18:12.257Z,110
2017-06-13T09:18:52.940Z,105
2017-06-13T09:19:33.560Z,95
2017-06-13T09:20:14.213Z,90
2017-06-13T09:20:54.899Z,85
2017-06-13T09:21:35.636Z,80
2017-06-13T09:22:16.398Z,75
2017-06-13T09:22:57.013Z,75
2017-06-13T09:23:37.668Z,75
2017-06-13T09:24:18.254Z,75
2017-06-13T09:24:58.885Z,80
2017-06-13T09:25:39.527Z,85
2017-06-13T09:26:20.197Z,95
2017-06-13T09:27:00.783Z,100
2017-06-13T09:27:41.378Z,110
2017-06-13T09:28:22.043Z,120
2017-06-13T09:29:02.606Z,125
2017-06-13T09:29:43.180Z,135
2017-06-13T09:30:23.787Z,140
2017-06-13T09:31:04.356Z,150
2017-06-13T09:31:44.957Z,160
2017-06-13T09:32:25.574Z,165
2017-06-13T09:33:06.145Z,175
2017-06-13T09:33:46.699Z,185
2017-06-13T09:34:27.270Z,200
2017-06-13T09:35:07.964Z,215
2017-06-13T09:35:48.660Z,230
2017-06-13T09:36:29.233Z,245
2017-06-13T09:37:09.802Z,265
2017-06-13T09:37:50.400Z,285
2017-06-13T09:38:31.973Z,300
2017-06-13T09:39:13.673Z,320
2017-06-13T09:39:54.303Z,335
2017-06-13T09:40:35.993Z,345
2017-06-13T09:41:16.564Z,360
2017-06-13T09:41:59.144Z,370
2017-06-13T09:42:39.735Z,380
2017-06-13T09:43:20.327Z,390
2017-06-13T09:44:00.906Z,395
2017-06-13T09:44:43.713Z,395
2017-06-13T09:45:24.321Z,400
2017-06-13T09:46:04.873Z,400
2017-06-13T09:46:47.455Z,400
2017-06-13T09:47:30.117Z,400
2017-06-13T09:48:11.742Z,410
2017-06-13T09:48:52.299Z,410
2017-06-13T09:49:38.731Z,410
2017-06-13T09:50:19.377Z,410
2017-06-13T09:50:59.962Z,405
2017-06-13T09:51:40.525Z,405
2017-06-13T09:52:21.101Z,410
2017-06-13T09:53:02.679Z,410
2017-06-13T09:53:43.247Z,410
2017-06-13T09:54:25.811Z,410
2017-06-13T09:55:07.389Z,405
2017-06-13T09:55:47.975Z,400
2017-06-13T09:56:28.541Z,395
2017-06-13T09:57:10.127Z,395
2017-06-13T09:57:50.701Z,395
2017-06-13T09:58:31.297Z,395
2017-06-13T09:59:11.875Z,395
2017-06-13T09:59:53.421Z,405
2017-06-13T10:00:35.028Z,400
2017-06-13T10:01:15.594Z,400
2017-06-13T10:01:57.170Z,400
2017-06-13T10:02:37.832Z,405
2017-06-13T10:03:18.429Z,405
2017-06-13T10:03:59.026Z,405
2017-06-13T10:04:39.602Z,400
2017-06-13T10:05:20.156Z,400
2017-06-13T10:06:00.761Z,400
2017-06-13T10:06:41.331Z,390
2017-06-13T10:07:21.911Z,415
2017-06-13T10:08:02.460Z,400
2017-06-13T10:08:43.046Z,370
2017-06-13T10:09:23.618Z,335
2017-06-13T10:10:06.181Z,340
2017-06-13T10:10:46.755Z,335
2017-06-13T10:11:27.366Z,285
2017-06-13T10:12:07.959Z,270
2017-06-13T10:12:48.552Z,310
2017-06-13T10:13:29.221Z,310
2017-06-13T10:14:09.772Z,315
2017-06-13T10:14:50.342Z,310
2017-06-13T10:15:30.941Z,305
2017-06-13T10:16:12.569Z,300
2017-06-13T10:16:53.138Z,305
2017-06-13T10:17:33.720Z,315
2017-06-13T10:18:14.304Z,310
2017-06-13T10:18:55.877Z,315
2017-06-13T10:19:37.439Z,290
2017-06-13T10:20:19.003Z,295
2017-06-13T10:20:59.580Z,300
2017-06-13T10:21:40.166Z,325
2017-06-13T10:22:21.763Z,370
2017-06-13T10:23:02.327Z,350
2017-06-13T10:23:42.913Z,360
2017-06-13T10:24:24.516Z,380
2017-06-13T10:25:06.097Z,390
2017-06-13T10:25:46.680Z,410
2017-06-13T10:26:27.343Z,425
2017-06-13T10:27:07.903Z,440
2017-06-13T10:27:48.584Z,440
2017-06-13T10:28:30.229Z,450
2017-06-13T10:29:10.807Z,445
2017-06-13T10:29:51.416Z,445
2017-06-13T10:30:32.010Z,445
2017-06-13T10:31:12.617Z,440
2017-06-13T10:31:53.291Z,440
2017-06-13T10:32:33.869Z,395
2017-06-13T10:33:14.485Z,380
2017-06-13T10:33:56.150Z,365
2017-06-13T10:34:36.722Z,325
2017-06-13T10:35:17.273Z,290
2017-06-13T10:35:57.862Z,265
2017-06-13T10:36:40.504Z,235
2017-06-13T10:37:21.084Z,220
2017-06-13T10:38:01.672Z,210
2017-06-13T10:38:42.266Z,205
2017-06-13T10:39:22.824Z,195
2017-06-13T10:40:03.520Z,190
2017-06-13T10:40:44.133Z,185
2017-06-13T10:41:24.662Z,180
2017-06-13T10:42:07.241Z,175
2017-06-13T10:42:47.811Z,165
2017-06-13T10:43:28.391Z,160
2017-06-13T10:44:09.955Z,150
2017-06-13T10:44:50.535Z,140
2017-06-13T10:45:31.111Z,130
2017-06-13T10:46:12.697Z,120
2017-06-13T10:46:53.277Z,110
2017-06-13T10:47:33.847Z,105
2017-06-13T10:48:14.428Z,100
2017-06-13T10:48:54.991Z,95
2017-06-13T10:49:35.593Z,95
2017-06-13T10:50:16.272Z,95
2017-06-13T10:50:56.827Z,95
2017-06-13T10:51:37.418Z,95
2017-06-13T10:52:18.003Z,95
2017-06-13T10:52:58.578Z,100
2017-06-13T10:53:39.178Z,105
2017-06-13T10:54:19.773Z,115
2017-06-13T10:55:00.359Z,125
2017-06-13T10:55:40.928Z,140
2017-06-13T10:56:21.526Z,150
2017-06-13T10:57:02.159Z,155
2017-06-13T10:57:42.794Z,165
2017-06-13T10:58:23.465Z,175
2017-06-13T10:59:04.098Z,185
2017-06-13T10:59:51.626Z,195
2017-06-13T11:00:32.266Z,205
2017-06-13T11:01:12.843Z,220
2017-06-13T11:01:53.468Z,230
2017-06-13T11:02:35.145Z,240
2017-06-13T11:03:15.717Z,255
2017-06-13T11:03:56.355Z,270
2017-06-13T11:04:38.026Z,285
2017-06-13T11:05:19.558Z,300
2017-06-13T11:06:02.198Z,315
2017-06-13T11:06:42.871Z,335
2017-06-13T11:07:23.451Z,350
2017-06-13T11:08:04.006Z,365
2017-06-13T11:08:44.631Z,375
2017-06-13T11:09:25.264Z,380
2017-06-13T11:10:05.857Z,390
2017-06-13T11:10:46.454Z,400
2017-06-13T11:11:27.079Z,405
2017-06-13T11:12:07.675Z,405
2017-06-13T11:12:49.287Z,410
2017-06-13T11:13:29.874Z,415
2017-06-13T11:14:12.540Z,410
2017-06-13T11:14:53.149Z,420
2017-06-13T11:15:33.714Z,415
2017-06-13T11:16:14.355Z,420
2017-06-13T11:16:55.007Z,420
2017-06-13T11:17:35.574Z,420
2017-06-13T11:18:16.149Z,425
2017-06-13T11:18:56.811Z,425
2017-06-13T11:19:37.439Z,420
2017-06-13T11:20:18.114Z,425
2017-06-13T11:20:58.768Z,430
2017-06-13T11:21:39.365Z,430
2017-06-13T11:22:19.941Z,430
2017-06-13T11:23:00.521Z,435
2017-06-13T11:23:41.117Z,435
2017-06-13T11:24:21.699Z,435
2017-06-13T11:25:02.301Z,445
2017-06-13T11:25:42.897Z,490
2017-06-13T11:26:23.467Z,450
2017-06-13T11:27:04.076Z,440
2017-06-13T11:27:45.263Z,440
2017-06-13T11:28:26.568Z,435
2017-06-13T11:29:07.132Z,435
2017-06-13T11:29:47.718Z,435
2017-06-13T11:30:29.275Z,440
2017-06-13T11:31:09.869Z,440
2017-06-13T11:31:50.457Z,440
2017-06-13T11:32:31.020Z,420
2017-06-13T11:33:11.596Z,435
2017-06-13T11:33:52.159Z,400
2017-06-13T11:34:32.718Z,400
2017-06-13T11:35:13.311Z,400
2017-06-13T11:35:53.865Z,390
2017-06-13T11:36:34.514Z,400
2017-06-13T11:37:15.096Z,350
2017-06-13T11:37:55.686Z,365
2017-06-13T11:38:36.266Z,365
2017-06-13T11:39:16.839Z,345
2017-06-13T11:39:57.417Z,310
2017-06-13T11:40:38.024Z,360
2017-06-13T11:41:18.571Z,370
2017-06-13T11:41:59.138Z,385
2017-06-13T11:42:39.773Z,400
2017-06-13T11:43:20.977Z,365
2017-06-13T11:44:01.552Z,365
2017-06-13T11:44:42.247Z,370
2017-06-13T11:45:22.892Z,365
2017-06-13T11:46:03.475Z,360
2017-06-13T11:46:44.141Z,355
2017-06-13T11:47:24.714Z,350
2017-06-13T11:48:05.300Z,340
2017-06-13T11:48:45.957Z,330
2017-06-13T11:49:26.653Z,325
2017-06-13T11:50:07.240Z,315
2017-06-13T11:50:47.803Z,305
2017-06-13T11:51:28.476Z,295
2017-06-13T11:52:09.137Z,275
2017-06-13T11:52:49.773Z,250
2017-06-13T11:53:30.425Z,230
2017-06-13T11:54:11.074Z,210
2017-06-13T11:54:51.730Z,205
2017-06-13T11:55:32.380Z,200
2017-06-13T11:56:13.054Z,205
2017-06-13T11:56:53.692Z,210
2017-06-13T11:57:34.347Z,215
2017-06-13T11:58:14.993Z,215
2017-06-13T11:58:55.666Z,210
2017-06-13T11:59:36.326Z,200
2017-06-13T12:00:16.955Z,195
2017-06-13T12:00:57.609Z,185
2017-06-13T12:01:38.257Z,180
2017-06-13T12:02:18.944Z,170
2017-06-13T12:02:59.587Z,160
2017-06-13T12:03:40.217Z,155
2017-06-13T12:04:20.873Z,150
2017-06-13T12:05:01.523Z,145
2017-06-13T12:05:42.170Z,145
2017-06-13T12:06:22.840Z,140
2017-06-13T12:07:03.492Z,140
2017-06-13T12:07:44.132Z,140
2017-06-13T12:08:24.798Z,140
2017-06-13T12:09:05.443Z,140
2017-06-13T12:09:46.092Z,135
2017-06-13T12:10:26.743Z,135
2017-06-13T12:11:07.419Z,140
2017-06-13T12:11:48.070Z,140
2017-06-13T12:12:28.719Z,140
2017-06-13T12:13:09.381Z,145
2017-06-13T12:13:50.024Z,150
2017-06-13T12:14:30.687Z,155
2017-06-13T12:15:11.357Z,160
2017-06-13T12:15:51.965Z,165
2017-06-13T12:16:32.638Z,170
2017-06-13T12:17:13.296Z,170
2017-06-13T12:17:53.924Z,175
2017-06-13T12:18:34.576Z,180
2017-06-13T12:19:15.247Z,180
2017-06-13T12:19:55.904Z,185
2017-06-13T12:20:36.560Z,185
2017-06-13T12:21:17.189Z,185
2017-06-13T12:21:57.881Z,190
2017-06-13T12:22:38.525Z,195
2017-06-13T12:23:19.093Z,200
2017-06-13T12:23:59.705Z,205
2017-06-13T12:24:40.365Z,215
2017-06-13T12:25:21.051Z,230
2017-06-13T12:26:01.659Z,230
2017-06-13T12:26:42.327Z,245
2017-06-13T12:27:22.984Z,255
2017-06-13T12:28:03.667Z,260
2017-06-13T12:28:44.250Z,265
2017-06-13T12:29:24.845Z,270
2017-06-13T12:30:05.536Z,265
2017-06-13T12:30:46.128Z,265
2017-06-13T12:31:26.794Z,265
2017-06-13T12:32:07.452Z,260
2017-06-13T12:32:48.104Z,260
2017-06-13T12:33:28.748Z,255
2017-06-13T12:34:09.393Z,250
2017-06-13T12:34:50.061Z,245
2017-06-13T12:35:30.641Z,240
2017-06-13T12:36:11.286Z,235
2017-06-13T12:36:51.908Z,235
2017-06-13T12:37:32.459Z,230
2017-06-13T12:38:13.133Z,225
2017-06-13T12:38:53.803Z,215
2017-06-13T12:39:34.376Z,210
2017-06-13T12:40:14.966Z,205
2017-06-13T12:40:55.622Z,200
2017-06-13T12:41:36.316Z,195
2017-06-13T12:42:16.914Z,195
2017-06-13T12:42:57.608Z,190
2017-06-13T12:43:38.360Z,190
2017-06-13T12:44:19.053Z,190
2017-06-13T12:44:59.609Z,190
2017-06-13T12:45:41.339Z,195
2017-06-13T12:46:21.969Z,190
2017-06-13T12:47:03.493Z,195
2017-06-13T12:47:44.060Z,200
2017-06-13T12:48:24.672Z,200
2017-06-13T12:49:05.307Z,210
2017-06-13T12:49:46.003Z,215
2017-06-13T12:50:26.583Z,220
2017-06-13T12:51:07.270Z,230
2017-06-13T12:51:47.907Z,245
2017-06-13T12:52:29.198Z,255
2017-06-13T12:53:09.852Z,265
2017-06-13T12:53:50.500Z,275
2017-06-13T12:54:31.172Z,285
2017-06-13T12:55:11.786Z,290
2017-06-13T12:55:52.462Z,290
2017-06-13T12:56:33.147Z,290
2017-06-13T12:57:13.730Z,295
2017-06-13T12:57:54.421Z,295
2017-06-13T12:58:35.692Z,295
2017-06-13T12:59:16.471Z,290
2017-06-13T12:59:57.093Z,290
2017-06-13T13:00:37.745Z,290
2017-06-13T13:01:18.399Z,290
2017-06-13T13:01:59.056Z,285
2017-06-13T13:02:39.710Z,280
2017-06-13T13:03:20.361Z,275
2017-06-13T13:04:00.991Z,270
2017-06-13T13:04:42.505Z,270
2017-06-13T13:05:23.170Z,265
2017-06-13T13:06:03.787Z,265
2017-06-13T13:06:44.445Z,265
2017-06-13T13:07:25.095Z,265
2017-06-13T13:08:05.741Z,265
2017-06-13T13:08:46.385Z,270
2017-06-13T13:09:27.054Z,270
2017-06-13T13:10:07.710Z,270
2017-06-13T13:10:48.398Z,275
2017-06-13T13:11:28.992Z,275
2017-06-13T13:12:09.664Z,275
2017-06-13T13:12:50.324Z,275
2017-06-13T13:13:30.901Z,275
2017-06-13T13:14:11.482Z,275
2017-06-13T13:14:52.060Z,275
2017-06-13T13:15:32.726Z,270
2017-06-13T13:16:13.301Z,270
2017-06-13T13:16:53.926Z,270
2017-06-13T13:17:34.575Z,270
2017-06-13T13:18:15.126Z,270
2017-06-13T13:18:55.782Z,275
2017-06-13T13:19:36.432Z,280
2017-06-13T13:20:17.246Z,285
2017-06-13T13:20:57.886Z,295
2017-06-13T13:21:38.522Z,305
2017-06-13T13:22:19.098Z,315
2017-06-13T13:22:59.702Z,330
2017-06-13T13:23:40.371Z,340
2017-06-13T13:24:20.953Z,345
2017-06-13T13:25:01.552Z,355
2017-06-13T13:25:42.217Z,360
2017-06-13T13:26:22.870Z,365
2017-06-13T13:27:03.529Z,380
2017-06-13T13:27:44.177Z,380
2017-06-13T13:28:24.828Z,365
2017-06-13T13:29:05.477Z,365
2017-06-13T13:29:46.137Z,355
2017-06-13T13:30:26.782Z,345
2017-06-13T13:31:07.631Z,340
2017-06-13T13:31:48.443Z,330
2017-06-13T13:32:29.074Z,325
2017-06-13T13:33:09.710Z,315
2017-06-13T13:33:50.394Z,300
2017-06-13T13:34:30.998Z,285
2017-06-13T13:35:11.649Z,265
2017-06-13T13:35:52.251Z,245
2017-06-13T13:36:32.826Z,235
2017-06-13T13:37:14.438Z,220
2017-06-13T13:37:55.091Z,210
2017-06-13T13:38:35.690Z,200
2017-06-13T13:39:16.261Z,190
2017-06-13T13:39:56.863Z,180
2017-06-13T13:40:37.498Z,165
2017-06-13T13:41:18.704Z,150
2017-06-13T13:41:59.324Z,140
2017-06-13T13:42:39.969Z,130
2017-06-13T13:43:20.647Z,125
2017-06-13T13:44:01.313Z,120
2017-06-13T13:44:41.885Z,115
2017-06-13T13:45:22.592Z,110
2017-06-13T13:46:03.229Z,105
2017-06-13T13:46:43.880Z,105
2017-06-13T13:47:24.528Z,100
2017-06-13T13:48:05.201Z,100
2017-06-13T13:48:45.847Z,100
2017-06-13T13:49:26.508Z,100
2017-06-13T13:50:07.160Z,100
2017-06-13T13:50:47.747Z,105
2017-06-13T13:51:28.316Z,110
2017-06-13T13:52:09.018Z,115
2017-06-13T13:52:49.667Z,120
2017-06-13T13:53:30.266Z,120
2017-06-13T13:54:10.877Z,125
2017-06-13T13:54:51.550Z,125
2017-06-13T13:55:32.173Z,120
2017-06-13T13:56:12.831Z,115
2017-06-13T13:56:53.501Z,110
2017-06-13T13:57:34.137Z,105
2017-06-13T13:58:14.784Z,100
2017-06-13T13:58:55.484Z,95
2017-06-13T13:59:36.090Z,90
2017-06-13T14:00:16.748Z,85
2017-06-13T14:00:57.389Z,80
2017-06-13T14:01:38.058Z,75
2017-06-13T14:02:18.708Z,75
2017-06-13T14:02:59.362Z,70
2017-06-13T14:03:40.018Z,65
2017-06-13T14:04:20.655Z,65
2017-06-13T14:05:01.301Z,65
2017-06-13T14:05:41.873Z,60
2017-06-13T14:06:22.527Z,60
2017-06-13T14:07:03.177Z,65
2017-06-13T14:07:43.773Z,65
2017-06-13T14:08:24.367Z,70
2017-06-13T14:09:05.027Z,75
2017-06-13T14:09:45.600Z,80
2017-06-13T14:10:26.228Z,85
2017-06-13T14:11:06.925Z,90
2017-06-13T14:11:47.526Z,100
2017-06-13T14:12:28.185Z,110
2017-06-13T14:13:08.853Z,120
2017-06-13T14:13:49.500Z,135
2017-06-13T14:14:30.166Z,150
2017-06-13T14:15:10.806Z,165
2017-06-13T14:15:51.445Z,175
2017-06-13T14:16:32.111Z,185
2017-06-13T14:17:13.793Z,195
2017-06-13T14:17:54.377Z,200
2017-06-13T14:18:34.975Z,205
2017-06-13T14:19:15.645Z,210
2017-06-13T14:19:56.298Z,215
2017-06-13T14:20:37.059Z,220
2017-06-13T14:21:18.817Z,230
2017-06-13T14:21:59.480Z,235
2017-06-13T14:22:40.125Z,250
2017-06-13T14:23:20.792Z,260
2017-06-13T14:24:01.433Z,280
2017-06-13T14:24:42.082Z,285
2017-06-13T14:25:22.747Z,300
2017-06-13T14:26:03.392Z,315
2017-06-13T14:26:44.054Z,330
2017-06-13T14:27:24.707Z,315
2017-06-13T14:28:05.372Z,310
2017-06-13T14:28:46.074Z,305
2017-06-13T14:29:27.750Z,300
2017-06-13T14:30:08.417Z,295
2017-06-13T14:30:51.091Z,285
2017-06-13T14:31:31.758Z,280
2017-06-13T14:32:14.341Z,270
2017-06-13T14:32:54.989Z,255
2017-06-13T14:33:35.711Z,245
2017-06-13T14:34:16.319Z,235
2017-06-13T14:34:56.953Z,225
2017-06-13T14:35:38.641Z,220
2017-06-13T14:36:19.322Z,210
2017-06-13T14:36:59.893Z,200
2017-06-13T14:37:40.543Z,200
2017-06-13T14:38:21.149Z,190
2017-06-13T14:39:02.761Z,180
2017-06-13T14:39:43.307Z,170
2017-06-13T14:40:23.940Z,160
2017-06-13T14:41:04.554Z,150
2017-06-13T14:41:45.245Z,135
2017-06-13T14:42:25.885Z,130
2017-06-13T14:43:07.552Z,120
2017-06-13T14:43:48.218Z,110
2017-06-13T14:44:29.895Z,105
2017-06-13T14:45:10.540Z,100
2017-06-13T14:45:51.196Z,95
2017-06-13T14:46:33.797Z,85
2017-06-13T14:47:14.465Z,80
2017-06-13T14:47:55.089Z,75
2017-06-13T14:48:36.783Z,75
2017-06-13T14:49:17.416Z,70
2017-06-13T14:50:00.029Z,65
2017-06-13T14:50:40.718Z,65
2017-06-13T14:51:21.335Z,60
2017-06-13T14:52:12.625Z,60
2017-06-13T14:52:53.287Z,60
2017-06-13T14:53:33.977Z,60
2017-06-13T14:54:14.522Z,55
2017-06-13T14:54:56.139Z,60
2017-06-13T14:55:36.813Z,60
2017-06-13T14:56:18.522Z,60
2017-06-13T14:56:59.213Z,60
2017-06-13T14:57:39.856Z,65
2017-06-13T14:58:20.530Z,65
2017-06-13T14:59:01.144Z,70
2017-06-13T14:59:41.813Z,75
2017-06-13T15:00:22.464Z,80
2017-06-13T15:01:03.052Z,90
2017-06-13T15:01:43.705Z,100
2017-06-13T15:02:24.311Z,115
2017-06-13T15:03:04.962Z,125
2017-06-13T15:03:45.665Z,140
2017-06-13T15:04:26.239Z,155
2017-06-13T15:05:06.937Z,165
2017-06-13T15:05:47.579Z,180
2017-06-13T15:06:28.187Z,195
2017-06-13T15:07:08.734Z,205
2017-06-13T15:07:49.329Z,210
2017-06-13T15:08:29.997Z,210
2017-06-13T15:09:10.705Z,210
2017-06-13T15:09:51.347Z,210
2017-06-13T15:10:31.970Z,210
2017-06-13T15:11:13.620Z,210
2017-06-13T15:11:54.220Z,215
2017-06-13T15:12:34.797Z,215
2017-06-13T15:13:15.476Z,215
2017-06-13T15:13:56.128Z,220
2017-06-13T15:14:36.779Z,220
2017-06-13T15:15:17.433Z,225
2017-06-13T15:15:58.038Z,230
2017-06-13T15:16:39.608Z,230
2017-06-13T15:17:20.260Z,230
2017-06-13T15:18:00.918Z,230
2017-06-13T15:18:41.571Z,240
2017-06-13T15:19:22.223Z,230
2017-06-13T15:20:02.880Z,235
2017-06-13T15:20:43.530Z,235
2017-06-13T15:21:24.180Z,235
2017-06-13T15:22:04.834Z,240
2017-06-13T15:22:46.101Z,240
2017-06-13T15:23:26.750Z,245
2017-06-13T15:24:07.408Z,245
2017-06-13T15:24:48.065Z,245
2017-06-13T15:25:28.713Z,245
2017-06-13T15:26:09.360Z,245
2017-06-13T15:26:50.032Z,240
2017-06-13T15:27:30.677Z,240
2017-06-13T15:28:11.342Z,240
2017-06-13T15:28:51.975Z,235
2017-06-13T15:29:32.628Z,235
2017-06-13T15:30:13.302Z,235
2017-06-13T15:30:53.956Z,235
2017-06-13T15:31:34.588Z,235
2017-06-13T15:32:15.244Z,230
2017-06-13T15:32:55.892Z,225
2017-06-13T15:33:36.551Z,220
2017-06-13T15:34:17.203Z,215
2017-06-13T15:34:57.952Z,215
2017-06-13T15:35:38.585Z,215
2017-06-13T15:36:19.213Z,215
2017-06-13T15:36:59.785Z,215
2017-06-13T15:37:40.462Z,210
2017-06-13T15:38:21.018Z,210
2017-06-13T15:39:01.604Z,205
2017-06-13T15:39:42.272Z,200
2017-06-13T15:40:22.856Z,195
2017-06-13T15:41:03.481Z,190
2017-06-13T15:41:44.139Z,190
2017-06-13T15:42:24.781Z,190
2017-06-13T15:43:05.437Z,190
2017-06-13T15:43:46.111Z,190
2017-06-13T15:44:26.818Z,190
2017-06-13T15:45:07.408Z,190
2017-06-13T15:45:48.056Z,185
2017-06-13T15:46:28.704Z,180
2017-06-13T15:47:09.379Z,180